Time;durP1;ratioP1;P1;durP2;ratioP2;P2;SDS_P1;SDS_P2;PMS_P1;PMS_P2;Temp;Humidity;BMP_temperature;BMP_pressure;BME280_temperature;BME280_humidity;BME280_pressure;Samples;Min_cycle;Max_cycle;Signal;HPM_P1;HPM_P2
2023/03/04 00:00:04;;;;;;;67.00;26.80;;;;;;;;;;5015099;28;20212;-72
2023/03/04 00:02:31;;;;;;;58.70;24.60;;;;;;;;;;5014795;28;20220;-72
2023/03/04 00:04:58;;;;;;;61.88;26.55;;;;;;;;;;5015011;28;20208;-71
2023/03/04 00:07:25;;;;;;;62.97;27.20;;;;;;;;;;5014961;28;20670;-72
2023/03/04 00:09:52;;;;;;;56.15;27.63;;;;;;;;;;5010894;28;20581;-72
2023/03/04 00:12:19;;;;;;;66.97;29.25;;;;;;;;;;5013607;28;20216;-71
2023/03/04 00:14:48;;;;;;;65.68;27.15;;;;;;;;;;5014690;28;20202;-72
2023/03/04 00:17:15;;;;;;;63.38;26.90;;;;;;;;;;5014620;28;20199;-72
2023/03/04 00:19:42;;;;;;;62.63;27.27;;;;;;;;;;5014058;28;20207;-72
2023/03/04 00:22:09;;;;;;;68.63;26.80;;;;;;;;;;5012331;28;20629;-72
2023/03/04 00:24:36;;;;;;;55.13;23.77;;;;;;;;;;5007280;28;20196;-72
2023/03/04 00:27:03;;;;;;;59.25;27.25;;;;;;;;;;4993962;28;20203;-72
2023/03/04 00:29:30;;;;;;;60.17;26.35;;;;;;;;;;4995254;28;20201;-72
2023/03/04 00:31:59;;;;;;;64.78;27.33;;;;;;;;;;4993461;28;20404;-72
2023/03/04 00:34:26;;;;;;;57.75;24.42;;;;;;;;;;4994952;28;20201;-72
2023/03/04 00:36:53;;;;;;;51.47;24.38;;;;;;;;;;4997207;28;20629;-72
2023/03/04 00:39:20;;;;;;;63.45;26.20;;;;;;;;;;5013992;28;20196;-72
2023/03/04 00:41:47;;;;;;;59.60;24.05;;;;;;;;;;5010189;28;20223;-72
2023/03/04 00:44:15;;;;;;;68.95;24.77;;;;;;;;;;4996796;28;20196;-72
2023/03/04 00:46:42;;;;;;;51.63;23.42;;;;;;;;;;5006063;28;20282;-72
2023/03/04 00:49:10;;;;;;;59.80;24.77;;;;;;;;;;4993864;28;20568;-72
2023/03/04 00:51:37;;;;;;;68.93;26.48;;;;;;;;;;5005906;28;20216;-72
2023/03/04 00:54:04;;;;;;;54.55;24.35;;;;;;;;;;5014119;28;20230;-72
2023/03/04 00:56:31;;;;;;;52.05;21.10;;;;;;;;;;5013286;28;20562;-72
2023/03/04 00:58:58;;;;;;;57.55;22.10;;;;;;;;;;5001571;28;20197;-72
2023/03/04 01:01:25;;;;;;;55.83;23.92;;;;;;;;;;4994119;28;20228;-72
2023/03/04 01:03:52;;;;;;;46.80;20.25;;;;;;;;;;4995519;28;20204;-72
2023/03/04 01:06:21;;;;;;;40.00;18.25;;;;;;;;;;5013403;28;20203;-72
2023/03/04 01:08:48;;;;;;;37.85;18.50;;;;;;;;;;5011645;28;20216;-72
2023/03/04 01:11:15;;;;;;;35.30;17.05;;;;;;;;;;5013460;28;20220;-72
2023/03/04 01:13:42;;;;;;;43.85;17.98;;;;;;;;;;5010960;28;20208;-72
2023/03/04 01:16:11;;;;;;;33.78;17.20;;;;;;;;;;4993895;28;20201;-72
2023/03/04 01:18:39;;;;;;;38.85;17.33;;;;;;;;;;4992296;28;20615;-72
2023/03/04 01:21:06;;;;;;;35.28;17.08;;;;;;;;;;4993897;28;20220;-72
2023/03/04 01:23:35;;;;;;;31.95;15.18;;;;;;;;;;4993227;28;20212;-72
2023/03/04 01:26:02;;;;;;;33.67;15.05;;;;;;;;;;4992174;28;20197;-72
2023/03/04 01:28:29;;;;;;;27.67;14.70;;;;;;;;;;4993943;28;20659;-72
2023/03/04 01:30:56;;;;;;;31.27;14.23;;;;;;;;;;5003271;28;20227;-72
2023/03/04 01:33:23;;;;;;;25.40;13.18;;;;;;;;;;5013189;28;20200;-72
2023/03/04 01:35:50;;;;;;;25.05;12.68;;;;;;;;;;5006092;28;20204;-72
2023/03/04 01:38:17;;;;;;;23.40;10.40;;;;;;;;;;4993585;28;20240;-72
2023/03/04 01:40:47;;;;;;;25.67;11.60;;;;;;;;;;4993431;28;20231;-72
2023/03/04 01:43:18;;;;;;;24.63;11.70;;;;;;;;;;4993395;28;20270;-72
2023/03/04 01:45:46;;;;;;;26.30;13.63;;;;;;;;;;4993282;28;20200;-72
2023/03/04 01:48:14;;;;;;;23.00;11.40;;;;;;;;;;5010146;28;20204;-72
2023/03/04 01:50:41;;;;;;;25.17;11.48;;;;;;;;;;5010288;28;20192;-72
2023/03/04 01:53:15;;;;;;;25.00;10.57;;;;;;;;;;5012899;28;20204;-71
2023/03/04 01:55:42;;;;;;;23.92;11.40;;;;;;;;;;5010942;28;20223;-72
2023/03/04 01:58:12;;;;;;;21.00;10.00;;;;;;;;;;5012650;28;20200;-72
2023/03/04 02:00:39;;;;;;;18.50;9.13;;;;;;;;;;5002176;28;20201;-72
2023/03/04 02:03:08;;;;;;;24.88;9.20;;;;;;;;;;4992790;28;20205;-72
2023/03/04 02:05:36;;;;;;;17.50;10.80;;;;;;;;;;4992517;28;20205;-72
2023/03/04 02:08:04;;;;;;;22.92;9.85;;;;;;;;;;4992467;28;20208;-72
2023/03/04 02:10:31;;;;;;;15.20;9.95;;;;;;;;;;4996904;28;20275;-72
2023/03/04 02:12:59;;;;;;;24.70;9.85;;;;;;;;;;5012334;28;20195;-72
2023/03/04 02:15:28;;;;;;;14.65;8.88;;;;;;;;;;5012558;28;20566;-73
2023/03/04 02:17:55;;;;;;;19.77;10.30;;;;;;;;;;5011173;28;20204;-72
2023/03/04 02:20:26;;;;;;;15.35;7.57;;;;;;;;;;4991925;28;20200;-73
2023/03/04 02:22:56;;;;;;;19.05;8.88;;;;;;;;;;4992671;28;20724;-72
2023/03/04 02:25:25;;;;;;;15.38;7.30;;;;;;;;;;4992223;28;20200;-73
2023/03/04 02:27:54;;;;;;;20.10;9.57;;;;;;;;;;5011607;28;20275;-74
2023/03/04 02:30:24;;;;;;;15.77;9.13;;;;;;;;;;5012598;28;20200;-72
2023/03/04 02:32:51;;;;;;;16.70;8.60;;;;;;;;;;5011485;28;20246;-72
2023/03/04 02:35:18;;;;;;;22.70;8.45;;;;;;;;;;5011236;28;20230;-71
2023/03/04 02:37:46;;;;;;;21.27;9.68;;;;;;;;;;5012319;28;20200;-73
2023/03/04 02:40:15;;;;;;;16.02;8.65;;;;;;;;;;5002633;28;20216;-72
2023/03/04 02:42:43;;;;;;;17.58;7.78;;;;;;;;;;4992447;28;20229;-72
2023/03/04 02:45:25;;;;;;;13.90;7.80;;;;;;;;;;4991734;28;20223;-72
2023/03/04 02:47:54;;;;;;;15.70;9.57;;;;;;;;;;4992170;28;20200;-72
2023/03/04 02:50:21;;;;;;;15.65;6.90;;;;;;;;;;4997320;28;20202;-72
2023/03/04 02:52:48;;;;;;;14.18;7.25;;;;;;;;;;5000330;28;20196;-72
2023/03/04 02:55:15;;;;;;;14.23;7.00;;;;;;;;;;4992734;28;20207;-72
2023/03/04 02:57:42;;;;;;;13.73;8.25;;;;;;;;;;4991297;28;20554;-72
2023/03/04 03:00:10;;;;;;;19.55;8.27;;;;;;;;;;4991922;28;20204;-72
2023/03/04 03:02:37;;;;;;;17.98;8.07;;;;;;;;;;5010545;28;20219;-72
2023/03/04 03:05:06;;;;;;;11.40;7.20;;;;;;;;;;5012063;28;20207;-72
2023/03/04 03:07:33;;;;;;;13.85;7.53;;;;;;;;;;5012106;28;20191;-72
2023/03/04 03:10:01;;;;;;;17.05;6.85;;;;;;;;;;5012136;28;20223;-72
2023/03/04 03:12:28;;;;;;;15.82;8.45;;;;;;;;;;5011439;28;20226;-72
2023/03/04 03:14:55;;;;;;;16.27;7.35;;;;;;;;;;5012162;28;20572;-72
2023/03/04 03:17:22;;;;;;;16.42;7.60;;;;;;;;;;5011132;28;20206;-72
2023/03/04 03:19:49;;;;;;;11.98;6.43;;;;;;;;;;5011802;28;20207;-72
2023/03/04 03:22:17;;;;;;;18.83;7.45;;;;;;;;;;5009553;28;20220;-72
2023/03/04 03:24:44;;;;;;;12.63;7.38;;;;;;;;;;5011894;28;20211;-72
2023/03/04 03:27:11;;;;;;;12.50;7.20;;;;;;;;;;5011436;28;20214;-72
2023/03/04 03:29:38;;;;;;;16.60;6.68;;;;;;;;;;5010649;28;20582;-72
2023/03/04 03:32:06;;;;;;;14.55;7.28;;;;;;;;;;5011136;28;20597;-72
2023/03/04 03:34:33;;;;;;;16.70;6.45;;;;;;;;;;5011436;28;20662;-73
2023/03/04 03:37:00;;;;;;;17.58;7.50;;;;;;;;;;5011474;28;20200;-73
2023/03/04 03:39:28;;;;;;;11.45;6.60;;;;;;;;;;5009943;28;20616;-72
2023/03/04 03:41:55;;;;;;;26.08;7.57;;;;;;;;;;5011458;28;20224;-72
2023/03/04 03:44:22;;;;;;;15.32;7.13;;;;;;;;;;5011635;28;20207;-72
2023/03/04 03:46:49;;;;;;;15.80;8.07;;;;;;;;;;5011367;28;20211;-72
2023/03/04 03:49:16;;;;;;;15.60;7.80;;;;;;;;;;5014677;28;20283;-72
2023/03/04 03:51:43;;;;;;;24.30;8.80;;;;;;;;;;5015068;28;20274;-72
2023/03/04 03:54:11;;;;;;;16.63;7.18;;;;;;;;;;5010868;28;20599;-72
2023/03/04 03:56:39;;;;;;;21.85;9.00;;;;;;;;;;4995415;28;20227;-72
2023/03/04 03:59:06;;;;;;;19.65;9.20;;;;;;;;;;4995758;28;20204;-72
2023/03/04 04:01:33;;;;;;;17.25;8.40;;;;;;;;;;5007205;28;20235;-72
2023/03/04 04:04:00;;;;;;;17.17;8.60;;;;;;;;;;5012428;28;20199;-72
2023/03/04 04:06:27;;;;;;;15.75;8.43;;;;;;;;;;5015016;28;20196;-72
2023/03/04 04:08:55;;;;;;;15.35;8.00;;;;;;;;;;5004984;28;20227;-72
2023/03/04 04:11:22;;;;;;;16.50;8.00;;;;;;;;;;4994417;28;20590;-72
2023/03/04 04:13:50;;;;;;;17.13;8.02;;;;;;;;;;4995506;28;20201;-72
2023/03/04 04:16:17;;;;;;;18.25;7.18;;;;;;;;;;5001413;28;20200;-72
2023/03/04 04:18:44;;;;;;;17.90;8.23;;;;;;;;;;5007747;28;20590;-72
2023/03/04 04:21:11;;;;;;;14.15;8.05;;;;;;;;;;4995027;28;20314;-72
2023/03/04 04:23:38;;;;;;;16.73;7.38;;;;;;;;;;5005913;28;20684;-72
2023/03/04 04:26:05;;;;;;;12.27;6.32;;;;;;;;;;4997500;28;20212;-71
2023/03/04 04:28:33;;;;;;;14.45;6.65;;;;;;;;;;4997423;28;20199;-72
2023/03/04 04:31:01;;;;;;;21.15;7.25;;;;;;;;;;5012360;28;20231;-72
2023/03/04 04:33:28;;;;;;;19.50;7.82;;;;;;;;;;5013578;28;20196;-72
2023/03/04 04:35:55;;;;;;;13.88;7.47;;;;;;;;;;5013935;28;20208;-72
2023/03/04 04:38:23;;;;;;;9.70;6.07;;;;;;;;;;5012624;28;20204;-72
2023/03/04 04:40:50;;;;;;;19.15;7.13;;;;;;;;;;5014433;28;20223;-72
2023/03/04 04:43:17;;;;;;;19.83;6.63;;;;;;;;;;4998447;28;20255;-73
2023/03/04 04:45:44;;;;;;;15.48;6.60;;;;;;;;;;4994513;28;20201;-72
2023/03/04 04:48:13;;;;;;;19.13;6.32;;;;;;;;;;4994472;28;20204;-72
2023/03/04 04:50:40;;;;;;;14.50;6.15;;;;;;;;;;4993666;28;20197;-72
2023/03/04 04:53:07;;;;;;;9.95;5.13;;;;;;;;;;4993605;28;20200;-72
2023/03/04 04:55:34;;;;;;;15.32;5.70;;;;;;;;;;4994833;28;20197;-72
2023/03/04 04:58:01;;;;;;;10.43;5.32;;;;;;;;;;4992814;28;20208;-72
2023/03/04 05:00:28;;;;;;;10.13;4.55;;;;;;;;;;4993172;28;20215;-72
2023/03/04 05:02:55;;;;;;;11.75;5.50;;;;;;;;;;4993974;28;20223;-72
2023/03/04 05:05:24;;;;;;;19.00;7.40;;;;;;;;;;4994606;28;20197;-72
2023/03/04 05:07:51;;;;;;;26.08;6.45;;;;;;;;;;5005142;28;20211;-72
2023/03/04 05:10:18;;;;;;;13.13;6.85;;;;;;;;;;5013865;28;20207;-72
2023/03/04 05:12:45;;;;;;;28.27;8.77;;;;;;;;;;5004352;28;20308;-72
2023/03/04 05:15:12;;;;;;;28.38;8.63;;;;;;;;;;4993082;28;20205;-72
2023/03/04 05:17:40;;;;;;;19.63;9.25;;;;;;;;;;4993999;28;20208;-72
2023/03/04 05:20:07;;;;;;;25.33;9.85;;;;;;;;;;4994105;28;20696;-72
2023/03/04 05:22:36;;;;;;;19.60;8.88;;;;;;;;;;4992833;28;20228;-72
2023/03/04 05:25:03;;;;;;;23.75;8.50;;;;;;;;;;4994127;28;20197;-73
2023/03/04 05:27:30;;;;;;;22.17;7.82;;;;;;;;;;4994017;28;20197;-73
2023/03/04 05:29:59;;;;;;;18.65;7.05;;;;;;;;;;5007081;28;20203;-72
2023/03/04 05:32:26;;;;;;;16.67;7.60;;;;;;;;;;5012040;28;20655;-73
2023/03/04 05:34:53;;;;;;;17.90;6.25;;;;;;;;;;5013594;28;20223;-72
2023/03/04 05:37:20;;;;;;;12.68;5.82;;;;;;;;;;5009857;28;20196;-72
2023/03/04 05:39:49;;;;;;;16.42;5.28;;;;;;;;;;5011907;28;20200;-71
2023/03/04 05:42:16;;;;;;;11.70;5.20;;;;;;;;;;5012271;28;20220;-72
2023/03/04 05:44:43;;;;;;;14.80;6.05;;;;;;;;;;5013050;28;20207;-72
2023/03/04 05:47:10;;;;;;;10.27;4.60;;;;;;;;;;5010976;28;20207;-72
2023/03/04 05:49:37;;;;;;;17.20;5.95;;;;;;;;;;5013386;28;20200;-72
2023/03/04 05:52:04;;;;;;;14.00;4.47;;;;;;;;;;5011076;28;20227;-72
2023/03/04 05:54:31;;;;;;;12.07;4.10;;;;;;;;;;5013046;28;20204;-72
2023/03/04 05:56:59;;;;;;;12.90;4.30;;;;;;;;;;5012705;28;20203;-72
2023/03/04 05:59:27;;;;;;;9.52;4.07;;;;;;;;;;5013027;28;20200;-72
2023/03/04 06:01:54;;;;;;;8.02;4.13;;;;;;;;;;5002772;28;20228;-72
2023/03/04 06:04:21;;;;;;;14.88;4.93;;;;;;;;;;5012613;28;20581;-72
2023/03/04 06:06:48;;;;;;;9.82;4.53;;;;;;;;;;4996901;28;20224;-72
2023/03/04 06:09:15;;;;;;;18.10;5.28;;;;;;;;;;5006068;28;20211;-73
2023/03/04 06:11:42;;;;;;;7.63;3.95;;;;;;;;;;5005201;28;20700;-72
2023/03/04 06:14:11;;;;;;;11.02;4.20;;;;;;;;;;4999105;28;20683;-72
2023/03/04 06:16:38;;;;;;;13.48;3.10;;;;;;;;;;5009588;28;20667;-72
2023/03/04 06:19:05;;;;;;;15.30;3.60;;;;;;;;;;5007462;28;20227;-72
2023/03/04 06:21:32;;;;;;;6.60;3.42;;;;;;;;;;5005957;28;20222;-72
2023/03/04 06:23:59;;;;;;;7.97;4.65;;;;;;;;;;5008098;28;20363;-72
2023/03/04 06:26:26;;;;;;;10.65;3.03;;;;;;;;;;5012122;28;20197;-72
2023/03/04 06:28:55;;;;;;;4.95;3.20;;;;;;;;;;4997061;28;20204;-72
2023/03/04 06:31:24;;;;;;;8.05;3.22;;;;;;;;;;5007965;28;20259;-72
2023/03/04 06:33:51;;;;;;;7.53;3.28;;;;;;;;;;4994088;28;20324;-72
2023/03/04 06:36:18;;;;;;;13.05;3.40;;;;;;;;;;4992936;28;20196;-72
2023/03/04 06:38:45;;;;;;;9.55;4.22;;;;;;;;;;5010662;28;20207;-72
2023/03/04 06:41:12;;;;;;;8.90;3.30;;;;;;;;;;4997302;28;20222;-72
2023/03/04 06:43:40;;;;;;;6.75;3.10;;;;;;;;;;5006286;28;20218;-72
2023/03/04 06:46:07;;;;;;;8.38;3.80;;;;;;;;;;5007204;28;20200;-72
2023/03/04 06:48:36;;;;;;;6.85;3.38;;;;;;;;;;5005873;28;20196;-72
2023/03/04 06:51:05;;;;;;;9.20;3.80;;;;;;;;;;5011373;28;20223;-73
2023/03/04 06:53:32;;;;;;;7.65;3.55;;;;;;;;;;5006917;28;20298;-73
2023/03/04 06:55:59;;;;;;;9.38;3.15;;;;;;;;;;4994650;28;20204;-73
2023/03/04 06:58:26;;;;;;;7.80;2.85;;;;;;;;;;5011743;28;20200;-73
2023/03/04 07:00:54;;;;;;;15.32;3.58;;;;;;;;;;4995505;28;20217;-72
2023/03/04 07:03:21;;;;;;;12.30;3.40;;;;;;;;;;5007373;28;20224;-73
2023/03/04 07:05:49;;;;;;;5.90;2.65;;;;;;;;;;4991809;28;20564;-71
2023/03/04 07:08:16;;;;;;;6.88;2.75;;;;;;;;;;5007425;28;20673;-72
2023/03/04 07:10:44;;;;;;;6.07;3.42;;;;;;;;;;5005232;28;20692;-72
2023/03/04 07:13:11;;;;;;;13.30;3.38;;;;;;;;;;5000517;28;20207;-72
2023/03/04 07:15:38;;;;;;;10.60;3.25;;;;;;;;;;5010010;28;20206;-70
2023/03/04 07:18:05;;;;;;;6.95;3.25;;;;;;;;;;5008578;28;20208;-72
2023/03/04 07:20:32;;;;;;;9.60;3.05;;;;;;;;;;5010466;28;20203;-73
2023/03/04 07:23:00;;;;;;;6.93;4.18;;;;;;;;;;5008817;28;20200;-72
2023/03/04 07:25:27;;;;;;;12.48;4.60;;;;;;;;;;5004567;28;20274;-72
2023/03/04 07:27:55;;;;;;;7.93;2.90;;;;;;;;;;5008455;28;20220;-72
2023/03/04 07:30:22;;;;;;;7.43;2.67;;;;;;;;;;5010797;28;20219;-72
2023/03/04 07:32:49;;;;;;;5.13;3.03;;;;;;;;;;5013772;28;20616;-71
2023/03/04 07:35:16;;;;;;;5.85;2.97;;;;;;;;;;5013844;28;20521;-72
2023/03/04 07:37:43;;;;;;;8.30;3.15;;;;;;;;;;5006371;28;20247;-72
2023/03/04 07:40:12;;;;;;;9.93;2.97;;;;;;;;;;5005158;28;20204;-72
2023/03/04 07:42:39;;;;;;;9.77;2.92;;;;;;;;;;5005039;28;20226;-72
2023/03/04 07:45:08;;;;;;;5.68;3.30;;;;;;;;;;5014310;28;20195;-72
2023/03/04 07:47:35;;;;;;;16.17;4.25;;;;;;;;;;5014491;28;20219;-71
2023/03/04 07:50:02;;;;;;;7.53;2.90;;;;;;;;;;5012645;28;20569;-72
2023/03/04 07:52:29;;;;;;;9.48;2.55;;;;;;;;;;5013627;28;20219;-73
2023/03/04 07:54:56;;;;;;;13.85;3.00;;;;;;;;;;5010080;28;20189;-72
2023/03/04 07:57:25;;;;;;;5.25;2.90;;;;;;;;;;5013125;28;20204;-73
2023/03/04 07:59:52;;;;;;;6.00;2.63;;;;;;;;;;5010449;28;20204;-72
2023/03/04 08:02:19;;;;;;;5.68;2.97;;;;;;;;;;5009394;28;20216;-72
2023/03/04 08:04:46;;;;;;;5.90;2.42;;;;;;;;;;5012932;28;20219;-72
2023/03/04 08:07:13;;;;;;;4.55;2.55;;;;;;;;;;5006342;28;20205;-72
2023/03/04 08:09:40;;;;;;;9.48;3.45;;;;;;;;;;5004066;28;20200;-71
2023/03/04 08:12:07;;;;;;;6.20;2.95;;;;;;;;;;5008519;28;20223;-72
2023/03/04 08:14:35;;;;;;;10.50;2.58;;;;;;;;;;5010284;28;20295;-72
2023/03/04 08:17:03;;;;;;;4.55;3.17;;;;;;;;;;5011051;28;20544;-72
2023/03/04 08:19:30;;;;;;;4.60;2.83;;;;;;;;;;5004738;28;20224;-72
2023/03/04 08:21:57;;;;;;;9.52;2.53;;;;;;;;;;5008845;28;20220;-72
2023/03/04 08:24:24;;;;;;;6.80;3.28;;;;;;;;;;5008643;28;20193;-72
2023/03/04 08:26:51;;;;;;;3.33;2.60;;;;;;;;;;4997096;28;20207;-71
2023/03/04 08:29:20;;;;;;;7.50;3.00;;;;;;;;;;5011798;28;20196;-72
2023/03/04 08:31:49;;;;;;;4.68;2.03;;;;;;;;;;5011313;28;20231;-72
2023/03/04 08:34:16;;;;;;;9.95;2.92;;;;;;;;;;5012122;28;20227;-71
2023/03/04 08:36:43;;;;;;;11.70;2.80;;;;;;;;;;5013349;28;20219;-71
2023/03/04 08:39:12;;;;;;;11.75;2.80;;;;;;;;;;5013837;28;20207;-71
2023/03/04 08:41:39;;;;;;;6.28;2.53;;;;;;;;;;5011742;28;20215;-70
2023/03/04 08:44:09;;;;;;;10.75;3.38;;;;;;;;;;5012470;28;20196;-71
2023/03/04 08:46:36;;;;;;;12.73;2.20;;;;;;;;;;5013326;28;20204;-71
2023/03/04 08:49:04;;;;;;;12.40;2.80;;;;;;;;;;5014104;28;20552;-70
2023/03/04 08:51:34;;;;;;;7.75;2.80;;;;;;;;;;5012769;28;20223;-71
2023/03/04 08:54:01;;;;;;;6.00;2.67;;;;;;;;;;5012109;28;20755;-71
2023/03/04 08:56:28;;;;;;;4.25;2.33;;;;;;;;;;5011880;28;20674;-70
2023/03/04 08:58:55;;;;;;;7.88;2.20;;;;;;;;;;5010367;28;20199;-70
2023/03/04 09:01:22;;;;;;;12.13;2.50;;;;;;;;;;5012614;28;20215;-70
2023/03/04 09:03:49;;;;;;;10.27;2.35;;;;;;;;;;5013681;28;20201;-73
2023/03/04 09:06:18;;;;;;;7.45;2.80;;;;;;;;;;5012785;28;20231;-70
2023/03/04 09:08:46;;;;;;;6.13;3.17;;;;;;;;;;5009691;28;20208;-71
2023/03/04 09:11:14;;;;;;;6.65;2.50;;;;;;;;;;5010780;28;20224;-71
2023/03/04 09:13:41;;;;;;;7.88;2.58;;;;;;;;;;5006323;28;20215;-71
2023/03/04 09:16:10;;;;;;;10.52;3.05;;;;;;;;;;5010702;28;20203;-71
2023/03/04 09:18:38;;;;;;;8.45;2.30;;;;;;;;;;5004305;28;20244;-71
2023/03/04 09:21:05;;;;;;;6.18;2.22;;;;;;;;;;5008939;28;20637;-71
2023/03/04 09:23:33;;;;;;;8.80;2.20;;;;;;;;;;5000095;28;20208;-72
2023/03/04 09:26:00;;;;;;;5.03;2.40;;;;;;;;;;5004095;28;20204;-71
2023/03/04 09:28:27;;;;;;;8.40;2.20;;;;;;;;;;5007434;28;20207;-71
2023/03/04 09:30:55;;;;;;;6.50;2.45;;;;;;;;;;5011093;28;20255;-71
2023/03/04 09:33:22;;;;;;;7.85;1.90;;;;;;;;;;5007950;28;20215;-71
2023/03/04 09:35:49;;;;;;;7.35;2.55;;;;;;;;;;5010383;28;20215;-71
2023/03/04 09:38:16;;;;;;;5.93;2.10;;;;;;;;;;4998724;28;20296;-71
2023/03/04 09:40:46;;;;;;;5.90;2.97;;;;;;;;;;5007434;28;20725;-71
2023/03/04 09:43:18;;;;;;;6.35;2.17;;;;;;;;;;5008473;28;20227;-70
2023/03/04 09:45:49;;;;;;;2.58;1.95;;;;;;;;;;5003356;28;20228;-69
2023/03/04 09:48:18;;;;;;;8.40;1.88;;;;;;;;;;5012492;28;20215;-71
2023/03/04 09:50:51;;;;;;;4.65;2.10;;;;;;;;;;5012733;28;20564;-71
2023/03/04 09:53:21;;;;;;;7.68;2.35;;;;;;;;;;5012815;28;20204;-72
2023/03/04 09:55:52;;;;;;;6.43;2.15;;;;;;;;;;5012951;28;20573;-71
2023/03/04 09:58:28;;;;;;;3.70;2.10;;;;;;;;;;5013095;28;20226;-72
2023/03/04 10:00:56;;;;;;;3.38;1.70;;;;;;;;;;4997044;28;20219;-70
2023/03/04 10:03:25;;;;;;;9.30;2.47;;;;;;;;;;5007721;28;20192;-71
2023/03/04 10:05:55;;;;;;;7.07;2.00;;;;;;;;;;5012357;28;20228;-71
2023/03/04 10:08:28;;;;;;;4.60;1.88;;;;;;;;;;4992722;28;20217;-71
2023/03/04 10:10:57;;;;;;;7.10;2.00;;;;;;;;;;4992863;28;20216;-71
2023/03/04 10:13:26;;;;;;;4.45;1.95;;;;;;;;;;4992735;28;20255;-71
2023/03/04 10:15:54;;;;;;;3.35;1.92;;;;;;;;;;5000619;28;20661;-70
2023/03/04 10:18:22;;;;;;;3.75;2.17;;;;;;;;;;5006777;28;20192;-71
2023/03/04 10:20:52;;;;;;;5.30;2.22;;;;;;;;;;4995995;28;20220;-71
2023/03/04 10:23:21;;;;;;;10.45;2.45;;;;;;;;;;5012386;28;20200;-71
2023/03/04 10:25:52;;;;;;;9.50;3.55;;;;;;;;;;5008195;28;20200;-71
2023/03/04 10:28:22;;;;;;;6.80;2.95;;;;;;;;;;5009540;28;20196;-71
2023/03/04 10:30:52;;;;;;;4.15;2.80;;;;;;;;;;5011991;28;20220;-70
2023/03/04 10:33:20;;;;;;;7.05;2.20;;;;;;;;;;4997800;28;20204;-71
2023/03/04 10:35:50;;;;;;;7.65;2.67;;;;;;;;;;5003575;28;20196;-71
2023/03/04 10:38:21;;;;;;;8.07;2.20;;;;;;;;;;5010755;28;20544;-71
2023/03/04 10:40:48;;;;;;;4.28;2.33;;;;;;;;;;4992605;28;20220;-71
2023/03/04 10:43:16;;;;;;;5.95;2.33;;;;;;;;;;5009283;28;20200;-71
2023/03/04 10:45:44;;;;;;;2.85;1.70;;;;;;;;;;5012451;28;20203;-70
2023/03/04 10:48:19;;;;;;;4.53;1.80;;;;;;;;;;5007795;28;20200;-71
2023/03/04 10:50:47;;;;;;;3.85;1.90;;;;;;;;;;5000915;28;20220;-71
2023/03/04 10:53:23;;;;;;;8.75;2.20;;;;;;;;;;4992447;28;20200;-71
2023/03/04 10:55:50;;;;;;;5.40;1.83;;;;;;;;;;4997200;28;20231;-70
2023/03/04 10:58:18;;;;;;;5.57;2.15;;;;;;;;;;5010487;28;20203;-71
2023/03/04 11:00:51;;;;;;;3.92;1.63;;;;;;;;;;5011767;28;20211;-72
2023/03/04 11:03:24;;;;;;;8.23;2.25;;;;;;;;;;5011582;28;20196;-71
2023/03/04 11:05:52;;;;;;;11.13;2.38;;;;;;;;;;5009829;28;20732;-71
2023/03/04 11:08:20;;;;;;;2.97;1.85;;;;;;;;;;5009299;28;20226;-70
2023/03/04 11:10:48;;;;;;;5.93;2.00;;;;;;;;;;5011515;28;20224;-71
2023/03/04 11:13:18;;;;;;;3.03;1.77;;;;;;;;;;5009655;28;20250;-70
2023/03/04 11:15:53;;;;;;;3.63;2.15;;;;;;;;;;5010605;28;20219;-71
2023/03/04 11:18:25;;;;;;;4.10;2.20;;;;;;;;;;5001959;28;20372;-72
2023/03/04 11:20:53;;;;;;;8.88;2.60;;;;;;;;;;5007815;28;20262;-71
2023/03/04 11:23:25;;;;;;;10.88;4.55;;;;;;;;;;5004703;28;20192;-72
2023/03/04 11:25:56;;;;;;;6.82;3.35;;;;;;;;;;5007515;28;20192;-71
2023/03/04 11:28:24;;;;;;;3.17;1.90;;;;;;;;;;5004077;28;20192;-72
2023/03/04 11:33:28;;;;;;;4.50;2.42;;;;;;;;;;4986026;28;20208;-71
2023/03/04 11:36:00;;;;;;;4.10;2.38;;;;;;;;;;4999625;28;20294;-72
2023/03/04 11:38:29;;;;;;;3.78;2.70;;;;;;;;;;4996626;28;20201;-73
2023/03/04 11:40:58;;;;;;;5.53;2.67;;;;;;;;;;4987767;28;20201;-73
2023/03/04 11:43:29;;;;;;;3.00;1.92;;;;;;;;;;4971141;28;20202;-73
2023/03/04 11:46:06;;;;;;;3.05;2.17;;;;;;;;;;4964350;28;20193;-72
2023/03/04 11:48:41;;;;;;;4.88;2.35;;;;;;;;;;4969034;28;20300;-73
2023/03/04 11:51:11;;;;;;;2.35;1.55;;;;;;;;;;4977414;28;20227;-73
2023/03/04 11:53:43;;;;;;;3.60;1.80;;;;;;;;;;4977802;28;20684;-72
2023/03/04 11:56:19;;;;;;;6.22;1.98;;;;;;;;;;4979694;28;20488;-73
2023/03/04 11:59:03;;;;;;;4.60;2.55;;;;;;;;;;4983774;28;20212;-72
2023/03/04 12:01:35;;;;;;;3.20;2.30;;;;;;;;;;4975158;28;20214;-72
2023/03/04 12:04:17;;;;;;;3.10;2.25;;;;;;;;;;4972759;28;20202;-72
2023/03/04 12:06:50;;;;;;;3.63;1.60;;;;;;;;;;4984004;28;20200;-71
2023/03/04 12:09:25;;;;;;;6.25;1.88;;;;;;;;;;4971652;28;20209;-71
2023/03/04 12:11:56;;;;;;;3.55;2.08;;;;;;;;;;4978805;28;20270;-71
2023/03/04 12:14:30;;;;;;;4.60;1.80;;;;;;;;;;4962469;28;20600;-71
2023/03/04 12:17:05;;;;;;;4.53;1.40;;;;;;;;;;4981159;28;20200;-71
2023/03/04 12:19:38;;;;;;;2.90;1.90;;;;;;;;;;4981281;28;20438;-71
2023/03/04 12:22:27;;;;;;;2.25;1.40;;;;;;;;;;4983303;28;20606;-71
2023/03/04 12:25:00;;;;;;;5.07;2.92;;;;;;;;;;4976905;28;20197;-72
2023/03/04 12:27:31;;;;;;;2.83;1.80;;;;;;;;;;4985868;28;20579;-71
2023/03/04 12:30:04;;;;;;;3.00;1.92;;;;;;;;;;4975350;28;20197;-72
2023/03/04 12:32:35;;;;;;;2.30;1.73;;;;;;;;;;4978966;28;20224;-72
2023/03/04 12:35:14;;;;;;;5.43;1.77;;;;;;;;;;4975659;28;20733;-72
2023/03/04 12:37:49;;;;;;;3.23;1.70;;;;;;;;;;4976664;28;20469;-74
2023/03/04 12:40:26;;;;;;;4.20;2.17;;;;;;;;;;4991008;28;20462;-73
2023/03/04 12:43:01;;;;;;;2.47;1.90;;;;;;;;;;4975651;28;20488;-73
2023/03/04 12:45:33;;;;;;;3.20;2.00;;;;;;;;;;4965592;28;20201;-71
2023/03/04 12:48:04;;;;;;;9.02;1.70;;;;;;;;;;4975649;28;20556;-71
2023/03/04 12:50:42;;;;;;;8.53;1.93;;;;;;;;;;4977829;28;20204;-72
2023/03/04 12:53:16;;;;;;;3.43;1.77;;;;;;;;;;4983018;28;20464;-71
2023/03/04 12:55:45;;;;;;;3.73;1.90;;;;;;;;;;4975331;28;20486;-71
2023/03/04 12:58:15;;;;;;;3.47;1.60;;;;;;;;;;4974242;28;20472;-71
2023/03/04 13:00:47;;;;;;;2.13;1.63;;;;;;;;;;4970757;28;20853;-71
2023/03/04 13:03:19;;;;;;;2.37;1.30;;;;;;;;;;4982043;28;20487;-71
2023/03/04 13:05:56;;;;;;;1.63;1.33;;;;;;;;;;4981805;28;20461;-71
2023/03/04 13:08:27;;;;;;;2.30;1.40;;;;;;;;;;4954341;28;20843;-71
2023/03/04 13:10:54;;;;;;;4.03;1.77;;;;;;;;;;4978387;28;20841;-71
2023/03/04 13:13:34;;;;;;;2.37;2.13;;;;;;;;;;4968911;28;22574;-70
2023/03/04 13:16:02;;;;;;;2.20;1.60;;;;;;;;;;4974093;28;20487;-70
2023/03/04 13:18:34;;;;;;;5.00;2.20;;;;;;;;;;4972515;28;20457;-70
2023/03/04 13:21:08;;;;;;;2.77;1.20;;;;;;;;;;4976662;28;20457;-70
2023/03/04 13:23:35;;;;;;;1.50;1.20;;;;;;;;;;4980938;28;20461;-70
2023/03/04 13:26:16;;;;;;;2.47;1.30;;;;;;;;;;4978953;28;20463;-70
2023/03/04 13:28:44;;;;;;;2.80;1.70;;;;;;;;;;4976261;28;20981;-70
2023/03/04 13:31:22;;;;;;;2.10;1.63;;;;;;;;;;4970923;28;20483;-70
2023/03/04 13:34:10;;;;;;;4.23;1.60;;;;;;;;;;4955685;28;20496;-70
2023/03/04 13:37:03;;;;;;;4.83;1.90;;;;;;;;;;4973618;28;21041;-70
2023/03/04 13:39:32;;;;;;;1.43;1.33;;;;;;;;;;4973026;28;20437;-70
2023/03/04 13:41:59;;;;;;;4.67;1.60;;;;;;;;;;4973679;28;20475;-70
2023/03/04 13:44:34;;;;;;;3.80;1.93;;;;;;;;;;4974236;28;20443;-70
2023/03/04 13:47:08;;;;;;;2.10;1.20;;;;;;;;;;4971671;28;20478;-69
2023/03/04 13:49:35;;;;;;;4.47;2.17;;;;;;;;;;4966499;28;20450;-70
2023/03/04 13:52:17;;;;;;;2.00;1.80;;;;;;;;;;4953332;29;20513;-72
2023/03/04 13:54:46;;;;;;;2.20;1.37;;;;;;;;;;4953812;28;20982;-71
2023/03/04 13:57:18;;;;;;;2.08;1.30;;;;;;;;;;4954894;29;20449;-72
2023/03/04 13:59:45;;;;;;;2.93;1.40;;;;;;;;;;4973593;28;20221;-71
2023/03/04 14:02:15;;;;;;;5.30;1.50;;;;;;;;;;4970375;28;20472;-70
2023/03/04 14:04:43;;;;;;;2.43;1.50;;;;;;;;;;4962500;28;20459;-71
2023/03/04 14:07:22;;;;;;;3.03;2.00;;;;;;;;;;4973747;28;20448;-71
2023/03/04 14:10:03;;;;;;;4.10;1.77;;;;;;;;;;4963169;28;20468;-71
2023/03/04 14:12:31;;;;;;;2.35;1.50;;;;;;;;;;4973524;28;20468;-70
2023/03/04 14:15:06;;;;;;;2.53;2.33;;;;;;;;;;4977576;28;20203;-71
2023/03/04 14:17:38;;;;;;;2.90;2.03;;;;;;;;;;4984507;28;20443;-71
2023/03/04 14:20:05;;;;;;;2.47;2.23;;;;;;;;;;4979407;28;20205;-71
2023/03/04 14:22:33;;;;;;;2.50;2.30;;;;;;;;;;4982839;28;20455;-71
2023/03/04 14:25:04;;;;;;;3.55;1.90;;;;;;;;;;4979199;28;20480;-71
2023/03/04 14:27:34;;;;;;;5.07;2.57;;;;;;;;;;4952911;28;20213;-71
2023/03/04 14:30:02;;;;;;;3.87;3.00;;;;;;;;;;4978716;28;20452;-71
2023/03/04 14:32:31;;;;;;;6.30;2.70;;;;;;;;;;4973555;28;20495;-71
2023/03/04 14:34:58;;;;;;;10.57;3.35;;;;;;;;;;4971565;28;20552;-71
2023/03/04 14:37:27;;;;;;;4.15;2.83;;;;;;;;;;4984586;28;20777;-71
2023/03/04 14:39:56;;;;;;;4.72;2.72;;;;;;;;;;4979629;28;20847;-72
2023/03/04 14:42:26;;;;;;;4.00;2.58;;;;;;;;;;4984084;28;20220;-73
2023/03/04 14:44:55;;;;;;;3.03;2.60;;;;;;;;;;4989142;28;20208;-73
2023/03/04 14:47:25;;;;;;;4.80;2.40;;;;;;;;;;4971946;28;20829;-73